Tiempo atmosférico en la estación meteorológica de San Bartolome Tirajana, El Matorral, Las Palmas (41 m.)



Fecha
DESCASC
Temp. máxima en grados centígrados (hora)
DESCASC
Temp. mínima en grados centígrados (hora)
DESCASC
Temp. media en grados centígrados
DESCASC
Racha de viento máxima en m/sg (hora)
DESCASC
Velocidad máxima media en intervalos de 10 minutos(hora)
DESCASC
Precipitaciones diarias en mm
DESCASC
Precipitaciones de 00:00 a 06:00 en mm
DESCASC
Precipitaciones de 06:00 a 12:00 en mm
DESCASC
Precipitaciones de 12:00 a 18:00 en mm
DESCASC
Precipitaciones de 18:00 a 24:00 en mm
DESCASC
31-03-2020 23.5 (15:00) 14.3 (01:30) 18.9 7.78 (17:30) 5.56 (17:10) 0 0 0 0 0
30-03-2020 23 (15:00) 13.2 (08:10) 18.1 12.5 (16:10) 8.61 (16:10) 0 0 0 0 0
29-03-2020 21.8 (12:30) 12.3 (00:00) 17 6.67 (12:40) 3.89 (12:40) 0 0 0 0 0
28-03-2020 22.1 (12:10) 12.5 (00:00) 17.3 9.17 (14:30) 5 (14:00) 0 0 0 0 0
27-03-2020 22.8 (14:30) 12.4 (00:00) 17.6 8.06 (18:00) 5.56 (18:00) 0.6 0 0 0.2 0.4
26-03-2020 20.3 (09:50) 12.4 (00:00) 16.3 6.11 (03:50) 4.17 (03:50) 0.4 0 0 0.2 0.2
25-03-2020 21.8 (10:10) 15.4 (00:00) 18.6 8.61 (11:30) 5 (11:30) 0.4 0 0 0.4 0
24-03-2020 23.8 (13:20) 15.6 (00:00) 19.7 10.83 (11:00) 7.22 (10:30) 0 0 0 0 0
23-03-2020 22.2 (14:30) 12.9 (00:00) 17.6 15.56 (16:30) 9.44 (16:40) 0.4 0 0.2 0.2 0
22-03-2020 22.6 (14:00) 14 (07:10) 18.3 10.28 (17:50) 6.94 (15:10) 0 0 0 0 0
21-03-2020 21.4 (13:40) 15.9 (00:00) 18.6 14.72 (13:50) 9.17 (13:30) 0 0 0 0 0
20-03-2020 24 (14:50) 16.3 (00:00) 20.1 13.61 (10:10) 8.89 (10:20) 0 0 0 0 0
19-03-2020 24.2 (13:10) 13.8 (00:00) 19 17.22 (13:30) 11.11 (13:30) 0 0 0 0 0
18-03-2020 23.4 (15:00) 14.8 (00:00) 19.1 15.28 (00:40) 8.89 (03:20) 0 0 0 0 0
17-03-2020 20.5 (15:20) 14.5 (00:00) 17.5 16.67 (13:00) 10.28 (15:40) 0 0 0 0 0
16-03-2020 22.5 (14:20) 16.8 (00:00) 19.6 17.22 (14:40) 10.83 (12:00) 0 0 0 0 0
15-03-2020 21.5 (16:00) 15.8 (00:00) 18.7 15 (11:30) 10.28 (11:30) 0 0 0 0 0
14-03-2020 22 (12:20) 16.8 (00:00) 19.4 15.28 (08:00) 9.44 (09:10) 0 0 0 0 0
13-03-2020 22.6 (14:30) 17 (06:10) 19.8 15.83 (22:10) 9.72 (04:30) 0 0 0 0 0
12-03-2020 27.9 (12:10) 16.1 (00:00) 22 10.28 (19:30) 6.11 (19:30) 0 0 0 0 0
11-03-2020 27.1 (12:40) 15.5 (00:00) 21.3 10 (23:30) 5.83 (23:10) 0 0 0 0 0
10-03-2020 26 (13:30) 16.6 (00:00) 21.3 10.56 (01:30) 6.67 (17:10) 0 0 0 0 0
09-03-2020 28 (12:30) 17.7 (00:00) 22.9 14.44 (00:40) 9.44 (00:40) 0 0 0 0 0
08-03-2020 27.3 (12:40) 17.1 (00:00) 22.2 16.94 (01:00) 11.39 (01:00) 0 0 0 0 0
07-03-2020 22.9 (12:50) 15.6 (00:00) 19.3 18.06 (13:10) 11.67 (13:10) 0 0 0 0 0
06-03-2020 20.5 (13:20) 16.2 (00:00) 18.4 20.83 (11:20) 13.89 (11:20) 0 0 0 0 0
05-03-2020 22.5 (14:10) 17 (00:00) 19.8 19.72 (21:10) 13.06 (23:40) 0 0 0 0 0
04-03-2020 25.8 (14:10) 16.9 (00:00) 21.3 11.39 (15:40) 6.94 (01:00) 0 0 0 0 0
03-03-2020 23.3 (14:40) 17.1 (00:00) 20.2 13.89 (13:20) 8.61 (13:20) 0 0 0 0 0

Gráficas

Temp. máximas Temp. mínimas Temp. medias Precipitaciones Rachas de viento máximas Velocidades máximas media en intervalos de 10 minutos

Datos horarios

Fecha y hora oficial Temperatura (ºC) Velocidad del viento (km/h) Dirección del viento Racha (km/h) Dirección de racha Precipitación (mm) Presión (hPa) Tendencia (hPa) Humedad (%)
2020-04-01 23:00:00 17.7 14 Nordeste 26 Norte 0 -- -- 72
2020-04-01 22:00:00 18.1 13 Nordeste 24 Nordeste 0 -- -- 73
2020-04-01 21:00:00 18.2 15 Nordeste 27 Nordeste 0 -- -- 72
2020-04-01 20:00:00 18.8 15 Nordeste 27 Nordeste 0 -- -- 70
2020-04-01 19:00:00 20.1 16 Nordeste 29 Este 0 -- -- 68
2020-04-01 18:00:00 21.2 18 Este 31 Este 0 -- -- 64
2020-04-01 17:00:00 21.2 17 Este 28 Nordeste 0 -- -- 63
2020-04-01 16:00:00 21.6 16 Este 28 Sudeste 0 -- -- 63
2020-04-01 15:00:00 22 15 Este 28 Nordeste 0 -- -- 60
2020-04-01 14:00:00 21.8 17 Este 28 Este 0 -- -- 59
2020-04-01 13:00:00 22.1 16 Este 27 Este 0 -- -- 61
2020-04-01 12:00:00 21.5 16 Nordeste 25 Este 0 -- -- 61
2020-04-01 11:00:00 21.2 13 Nordeste 26 Este 0 -- -- 62
2020-04-01 10:00:00 20.1 10 Nordeste 17 Nordeste 0 -- -- 68
2020-04-01 09:00:00 15.7 5 Noroeste 12 Noroeste 0 -- -- 79
2020-04-01 08:00:00 15.9 4 Norte 14 Norte 0 -- -- 82
2020-04-01 07:00:00 16.2 10 Nordeste 20 Norte 0 -- -- 81
2020-04-01 06:00:00 16.3 7 Norte 18 Nordeste 0 -- -- 79
2020-04-01 05:00:00 16.9 10 Nordeste 19 Nordeste 0 -- -- 81
2020-04-01 04:00:00 17.3 9 Nordeste 19 Nordeste 0 -- -- 81
2020-04-01 03:00:00 17.7 10 Nordeste 19 Nordeste 0 -- -- 81
2020-04-01 02:00:00 18.6 8 Nordeste 15 Nordeste 0 -- -- 77
2020-04-01 01:00:00 18.7 5 Este 8 Nordeste 0 -- -- 80
2020-04-01 00:00:00 18.9 3 Nordeste 9 Este 0 -- -- 78
2020-03-31 23:00:00 18.9 4 Este 7 Este 0 -- -- 78
2020-03-31 22:00:00 19.2 3 Sudeste 7 Sur 0 -- -- 77
2020-03-31 21:00:00 19.2 6 Sur 10 Sur 0 -- -- 77
2020-03-31 20:00:00 19.4 7 Sur 16 Sur 0 -- -- 75
2020-03-31 19:00:00 19.9 11 Sur 21 Sur 0 -- -- 74
2020-03-31 18:00:00 21.1 13 Sur 28 Sudoeste 0 -- -- 70
2020-03-31 17:00:00 22.1 17 Sudoeste 27 Sur 0 -- -- 66
2020-03-31 16:00:00 22.6 16 Sur 25 Sur 0 -- -- 66
2020-03-31 15:00:00 23.5 14 Sur 23 Sur 0 -- -- 63
2020-03-31 14:00:00 21.8 13 Sur 23 Sudoeste 0 -- -- 69
2020-03-31 13:00:00 22.5 14 Sur 21 Sur 0 -- -- 67
2020-03-31 12:00:00 22.3 13 Sudeste 20 Sudeste 0 -- -- 68
2020-03-31 11:00:00 21.4 8 Sur 13 Sudeste 0 -- -- 70
2020-03-31 10:00:00 20.9 5 Sur 9 Sudeste 0 -- -- 72
2020-03-31 09:00:00 17.1 3 Noroeste 8 Noroeste 0 -- -- 83
2020-03-31 08:00:00 14.6 3 Noroeste 5 Noroeste 0 -- -- 90
2020-03-31 07:00:00 16.3 3 Norte 5 Oeste 0 -- -- 87
2020-03-31 06:00:00 16.9 4 Oeste 7 Sudoeste 0 -- -- 85
2020-03-31 05:00:00 17.2 5 Sudoeste 11 Oeste 0 -- -- 86
2020-03-31 04:00:00 16 7 Oeste 10 Oeste 0 -- -- 89
2020-03-31 03:00:00 15.1 6 Oeste 8 Oeste 0 -- -- 89
2020-03-31 02:00:00 14.5 5 Noroeste 6 Noroeste 0 -- -- 89
2020-03-31 01:00:00 14.8 5 Norte 7 Norte 0 -- -- 87
2020-03-31 00:00:00 16.7 5 Norte 11 Nordeste 0 -- -- 82
2020-03-30 23:00:00 16.9 5 Nordeste 10 Nordeste 0 -- -- 82
2020-03-30 22:00:00 17.4 7 Nordeste 16 Norte 0 -- -- 79
2020-03-30 21:00:00 18.6 9 Norte 21 Nordeste 0 -- -- 73
2020-03-30 20:00:00 20.2 10 Noroeste 40 Sudoeste 0 -- -- 69
2020-03-30 19:00:00 21 22 Sudoeste 41 Sudoeste 0 -- -- 68
2020-03-30 18:00:00 21.6 26 Sudoeste 44 Sudoeste 0 -- -- 64
2020-03-30 17:00:00 20.8 24 Sudoeste 45 Sudoeste 0 -- -- 67
2020-03-30 16:00:00 21.5 28 Sudoeste 42 Sudoeste 0 -- -- 63
2020-03-30 15:00:00 23 23 Sur 37 Sur 0 -- -- 59
2020-03-30 14:00:00 22 20 Sur 31 Sur 0 -- -- 62
2020-03-30 13:00:00 21.7 15 Sur 25 Sur 0 -- -- 62
2020-03-30 12:00:00 21.5 12 Sur 19 Sur 0 -- -- 63
2020-03-30 11:00:00 20.8 10 Sur 17 Sur 0 -- -- 67
2020-03-30 10:00:00 18.4 4 Sur 9 Sur 0 -- -- 77
2020-03-30 09:00:00 16.5 4 Noroeste 9 Noroeste 0 -- -- 80
2020-03-30 08:00:00 13.3 6 Noroeste 9 Noroeste 0 -- -- 86
2020-03-30 07:00:00 13.5 8 Noroeste 11 Noroeste 0 -- -- 83
2020-03-30 06:00:00 13.4 8 Noroeste 10 Noroeste 0 -- -- 84
2020-03-30 05:00:00 14 8 Noroeste 10 Noroeste 0 -- -- 83
2020-03-30 04:00:00 15.2 8 Norte 12 Norte 0 -- -- 84
2020-03-30 03:00:00 14.2 7 Norte 9 Noroeste 0 -- -- 86
2020-03-30 02:00:00 15 7 Noroeste 8 Noroeste 0 -- -- 84
2020-03-30 01:00:00 15.4 5 Norte 8 Noroeste 0 -- -- 83
2020-03-30 00:00:00 16.4 5 Noroeste 8 Norte 0 -- -- 81
2020-03-29 23:00:00 16.5 5 Norte 15 Nordeste 0 -- -- 79
2020-03-29 22:00:00 18 12 Nordeste 19 Nordeste 0 -- -- 74
2020-03-29 21:00:00 18.1 9 Este 12 Sudeste 0 -- -- 74
2020-03-29 20:00:00 18.6 4 Sur 10 Sur 0 -- -- 70
2020-03-29 19:00:00 19.1 4 Sudeste 12 Sudoeste 0 -- -- 68
2020-03-29 18:00:00 19.4 6 Sur 13 Sur 0 -- -- 67
2020-03-29 17:00:00 19.1 7 Sur 12 Sur 0 -- -- 69
2020-03-29 16:00:00 18.9 7 Sudoeste 12 Sur 0 -- -- 69
2020-03-29 15:00:00 19.3 7 Sur 14 Sudeste 0 -- -- 67
2020-03-29 14:00:00 19.9 9 Sudeste 19 Sudeste 0 -- -- 65
2020-03-29 13:00:00 20.6 13 Este 24 Sudeste 0 -- -- 64
2020-03-29 12:00:00 20.7 14 Este 22 Este 0 -- -- 62
2020-03-29 11:00:00 20.1 13 Este 21 Este 0 -- -- 63
2020-03-29 10:00:00 19 6 Norte 12 Noroeste 0 -- -- 66
2020-03-29 09:00:00 15.5 7 Norte 11 Noroeste 0 -- -- 71
2020-03-29 08:00:00 12.7 8 Noroeste 12 Noroeste 0 -- -- 77
2020-03-29 07:00:00 12.8 9 Norte 12 Noroeste 0 -- -- 79
2020-03-29 06:00:00 12.7 8 Norte 13 Norte 0 -- -- 80
2020-03-29 05:00:00 13.1 9 Norte 12 Norte 0 -- -- 78
2020-03-29 04:00:00 12.6 7 Noroeste 11 Norte 0 -- -- 80
2020-03-29 00:00:00 13.8 8 Norte 10 Norte 0 -- -- 77
2020-03-28 23:00:00 15.4 8 Norte 14 Nordeste 0 -- -- 72
2020-03-28 22:00:00 16.6 8 Norte 11 Nordeste 0 -- -- 73
2020-03-28 21:00:00 17.8 5 Norte 20 Nordeste 0 -- -- 68
2020-03-28 20:00:00 17.9 11 Nordeste 19 Norte 0 -- -- 73
2020-03-28 19:00:00 18.5 10 Nordeste 21 Nordeste 0 -- -- 71
2020-03-28 18:00:00 19.1 12 Nordeste 22 Nordeste 0 -- -- 65
2020-03-28 17:00:00 19.2 13 Nordeste 27 Nordeste 0 -- -- 65
2020-03-28 16:00:00 19.1 10 Nordeste 26 Nordeste 0 -- -- 63
2020-03-28 15:00:00 19.3 18 Nordeste 33 Norte 0 -- -- 65
2020-03-28 14:00:00 19.4 18 Nordeste 32 Este 0 -- -- 65
2020-03-28 13:00:00 20.6 13 Nordeste 29 Nordeste 0 -- -- 59
2020-03-28 12:00:00 21.4 17 Nordeste 28 Nordeste 0 -- -- 58
2020-03-28 11:00:00 21.6 13 Sudoeste 21 Sur 0 -- -- 59
2020-03-28 10:00:00 20.2 10 Sur 19 Sudoeste 0 -- -- 67
2020-03-28 09:00:00 18.7 3 Oeste 7 Oeste 0 -- -- 68
2020-03-28 08:00:00 15.5 3 Norte 10 Noroeste 0 -- -- 81
2020-03-28 07:00:00 12.5 7 Noroeste 10 Noroeste 0 -- -- 89
2020-03-28 06:00:00 12.5 4 Noroeste 8 Noroeste 0 -- -- 91
2020-03-28 05:00:00 13.2 6 Norte 10 Norte 0 -- -- 90
2020-03-28 04:00:00 13.1 5 Noroeste 7 Noroeste 0 -- -- 91
2020-03-28 03:00:00 14.1 6 Noroeste 10 Noroeste 0 -- -- 91
2020-03-28 02:00:00 15.1 4 Nordeste 14 Norte 0 -- -- 85
2020-03-28 01:00:00 15.3 9 Norte 17 Nordeste 0 -- -- 92
2020-03-28 00:00:00 15.7 9 Nordeste 17 Nordeste 0.2 -- -- 91
2020-03-27 23:00:00 15.7 8 Norte 13 Norte 0 -- -- 92
2020-03-27 22:00:00 15.5 9 Norte 12 Norte 0 -- -- 91
2020-03-27 21:00:00 16 7 Norte 13 Norte 0 -- -- 89
2020-03-27 20:00:00 16.3 10 Norte 24 Norte 0.2 -- -- 90
2020-03-27 19:00:00 17.3 12 Oeste 24 Sudoeste 0 -- -- 82
2020-03-27 18:00:00 19.4 20 Sudoeste 29 Sur 0.2 -- -- 69
2020-03-27 17:00:00 19.7 13 Sur 21 Sur 0 -- -- 68
2020-03-27 16:00:00 20.3 12 Sur 22 Sur 0 -- -- 66
2020-03-27 15:00:00 21.8 0 Calma 21 Sur 0 -- -- 59
2020-03-27 14:00:00 22.2 11 Sudeste 22 Sur 0 -- -- 57
2020-03-27 13:00:00 22.1 14 Sur 22 Sudeste 0 -- -- 55
2020-03-27 12:00:00 22.7 11 Sur 18 Sudoeste 0 -- -- 53
2020-03-27 11:00:00 20.7 9 Sur 17 Sur 0 -- -- 63
2020-03-27 10:00:00 20.8 7 Sur 13 Sudeste 0 -- -- 55
2020-03-27 09:00:00 17.8 0 Calma 8 Noroeste 0 -- -- 61
2020-03-27 08:00:00 14.1 6 Norte 8 Norte 0 -- -- 78
2020-03-27 07:00:00 13.8 6 Noroeste 8 Norte 0 -- -- 80
2020-03-27 06:00:00 13.7 5 Noroeste 10 Oeste 0 -- -- 81
2020-03-27 05:00:00 12.9 6 Noroeste 10 Oeste 0 -- -- 83
2020-03-27 04:00:00 13.1 7 Noroeste 12 Noroeste 0 -- -- 83
2020-03-27 03:00:00 12.7 6 Noroeste 10 Oeste 0 -- -- 86
2020-03-27 02:00:00 12.4 7 Noroeste 10 Noroeste 0 -- -- 89
2020-03-27 01:00:00 12.7 5 Noroeste 10 Noroeste 0 -- -- 89
2020-03-27 00:00:00 12.7 8 Noroeste 10 Noroeste 0 -- -- 91
2020-03-26 23:00:00 12.9 6 Noroeste 8 Noroeste 0 -- -- 90
2020-03-26 22:00:00 13.6 5 Oeste 8 Oeste 0 -- -- 90
2020-03-26 21:00:00 14.3 4 Oeste 5 Oeste 0 -- -- 88
2020-03-26 20:00:00 14.7 4 Sudoeste 10 Sudoeste 0.2 -- -- 87
2020-03-26 19:00:00 15 3 Oeste 8 Oeste 0 -- -- 87
2020-03-26 18:00:00 14.9 6 Oeste 13 Oeste 0.2 -- -- 86
2020-03-26 17:00:00 15.9 7 Oeste 12 Oeste 0 -- -- 81
2020-03-26 16:00:00 16 5 Noroeste 11 Norte 0 -- -- 82
2020-03-26 15:00:00 17 6 Noroeste 14 Oeste 0 -- -- 79
2020-03-26 14:00:00 16.7 6 Noroeste 17 Norte 0 -- -- 77
2020-03-26 13:00:00 18.4 3 Sudoeste 11 Sur 0 -- -- 64
2020-03-26 12:00:00 17.3 8 Este 15 Este 0 -- -- 76
2020-03-26 11:00:00 17.9 9 Este 21 Este 0 -- -- 69
2020-03-26 10:00:00 19.3 10 Este 17 Nordeste 0 -- -- 61
2020-03-26 09:00:00 19.5 3 Nordeste 9 Este 0 -- -- 57
2020-03-26 08:00:00 15.5 5 Noroeste 8 Noroeste 0 -- -- 72
2020-03-26 07:00:00 13.1 5 Noroeste 8 Nordeste 0 -- -- 73
2020-03-26 06:00:00 15.6 8 Norte 19 Norte 0 -- -- 69
2020-03-26 05:00:00 16.3 10 Nordeste 19 Norte 0 -- -- 69
2020-03-26 04:00:00 16.7 13 Norte 22 Norte 0 -- -- 69
2020-03-26 03:00:00 16.5 13 Norte 18 Norte 0 -- -- 70
2020-03-26 02:00:00 16.3 9 Norte 15 Norte 0 -- -- 70
2020-03-26 01:00:00 15.4 7 Norte 15 Norte 0 -- -- 71
2020-03-26 00:00:00 15.5 9 Nordeste 18 Norte 0 -- -- 68
2020-03-25 23:00:00 16.5 14 Norte 24 Nordeste 0 -- -- 67
2020-03-25 22:00:00 16.3 13 Norte 23 Norte 0 -- -- 70
2020-03-25 21:00:00 16.3 10 Nordeste 24 Nordeste 0 -- -- 72
2020-03-25 20:00:00 16.8 13 Nordeste 25 Nordeste 0 -- -- 74
2020-03-25 19:00:00 17.3 10 Nordeste 15 Nordeste 0 -- -- 69
2020-03-25 18:00:00 16.8 0 Calma 11 Norte 0 -- -- 81
2020-03-25 17:00:00 17.4 4 Este 19 Nordeste 0.4 -- -- 75
2020-03-25 16:00:00 18.3 13 Nordeste 23 Este 0 -- -- 65
2020-03-25 15:00:00 18.9 14 Nordeste 24 Este 0 -- -- 65
2020-03-25 14:00:00 18.9 14 Nordeste 26 Este 0 -- -- 61
2020-03-25 13:00:00 19 15 Este 27 Este 0 -- -- 65
2020-03-25 12:00:00 20.2 16 Este 31 Nordeste 0 -- -- 58
2020-03-25 11:00:00 21 14 Nordeste 26 Este 0 -- -- 53
2020-03-25 10:00:00 21.6 12 Sudeste 20 Este 0 -- -- 51
2020-03-25 09:00:00 20.3 4 Oeste 8 Oeste 0 -- -- 50
2020-03-25 08:00:00 17.3 3 Norte 11 Nordeste 0 -- -- 57
2020-03-25 07:00:00 16.3 8 Norte 17 Norte 0 -- -- 63
2020-03-25 06:00:00 16.5 9 Nordeste 16 Nordeste 0 -- -- 65
2020-03-25 05:00:00 16.8 8 Norte 15 Nordeste 0 -- -- 63
2020-03-25 04:00:00 17.6 9 Norte 18 Norte 0 -- -- 63
2020-03-25 03:00:00 17.1 5 Noroeste 24 Nordeste 0 -- -- 60
2020-03-25 02:00:00 17.5 18 Norte 30 Norte 0 -- -- 60
2020-03-25 01:00:00 16.8 12 Nordeste 22 Norte 0 -- -- 71
2020-03-25 00:00:00 17.3 12 Norte 26 Norte 0 -- -- 58
2020-03-24 23:00:00 17.2 8 Noroeste 21 Norte 0 -- -- 57
2020-03-24 22:00:00 17.7 12 Nordeste 29 Norte 0 -- -- 65
2020-03-24 21:00:00 17.9 14 Nordeste 31 Norte 0 -- -- 68
2020-03-24 20:00:00 18.9 18 Norte 33 Norte 0 -- -- 57
2020-03-24 19:00:00 19.8 5 Noroeste 23 Sur 0 -- -- 59
2020-03-24 18:00:00 19.8 15 Sudeste 27 Sudeste 0 -- -- 65
2020-03-24 17:00:00 21.2 15 Sur 26 Sur 0 -- -- 60
2020-03-24 16:00:00 20.8 17 Sur 32 Sudoeste 0 -- -- 58
2020-03-24 15:00:00 23.2 19 Sudoeste 33 Sur 0 -- -- 51
2020-03-24 14:00:00 23 19 Sur 29 Sudoeste 0 -- -- 52
2020-03-24 13:00:00 22.8 16 Sudoeste 30 Sudoeste 0 -- -- 49
2020-03-24 12:00:00 21.8 16 Sudoeste 39 Norte 0 -- -- 46
2020-03-24 11:00:00 22.4 24 Norte 39 Norte 0 -- -- 47
2020-03-24 10:00:00 21.1 5 Sur 15 Sur 0 -- -- 54
2020-03-24 09:00:00 19.5 7 Sur 12 Sudoeste 0 -- -- 62
2020-03-24 08:00:00 18.1 0 Calma 10 Norte 0 -- -- 66
2020-03-24 07:00:00 16.4 7 Noroeste 14 Oeste 0 -- -- 72
2020-03-24 06:00:00 15.6 4 Nordeste 14 Nordeste 0 -- -- 72
2020-03-24 05:00:00 16.5 5 Nordeste 11 Oeste 0 -- -- 68
2020-03-24 04:00:00 16.9 8 Oeste 13 Oeste 0 -- -- 68
2020-03-24 03:00:00 16.6 7 Noroeste 11 Noroeste 0 -- -- 64
2020-03-24 02:00:00 15.6 6 Oeste 14 Norte 0 -- -- 65
2020-03-24 01:00:00 16.8 5 Norte 17 Noroeste 0 -- -- 65
2020-03-24 00:00:00 17.4 10 Norte 18 Noroeste 0 -- -- 61
2020-03-23 23:00:00 17.1 5 Noroeste 17 Noroeste 0 -- -- 56
2020-03-23 22:00:00 17.1 5 Noroeste 22 Nordeste 0 -- -- 59
2020-03-23 21:00:00 17.6 15 Nordeste 34 Norte 0 -- -- 57
2020-03-23 20:00:00 17.7 20 Norte 39 Norte 0 -- -- 54
2020-03-23 19:00:00 18.7 22 Norte 45 Norte 0 -- -- 48
2020-03-23 18:00:00 18.9 27 Norte 47 Norte 0 -- -- 52
2020-03-23 17:00:00 20.4 30 Norte 56 Nordeste 0 -- -- 50
2020-03-23 16:00:00 20.2 32 Norte 49 Norte 0.2 -- -- 48
2020-03-23 15:00:00 20.3 26 Norte 49 Norte 0 -- -- 57
2020-03-23 14:00:00 21.5 31 Norte 53 Norte 0 -- -- 46
2020-03-23 13:00:00 20.5 27 Norte 48 Norte 0 -- -- 50
2020-03-23 12:00:00 19.7 27 Norte 47 Norte 0 -- -- 51
2020-03-23 11:00:00 16.4 23 Norte 47 Norte 0 -- -- 66
2020-03-23 10:00:00 18.3 19 Norte 45 Norte 0 -- -- 59
2020-03-23 09:00:00 16.9 23 Norte 39 Noroeste 0.2 -- -- 59
2020-03-23 08:00:00 14.9 19 Norte 30 Norte 0 -- -- 65
2020-03-23 07:00:00 13 6 Este 11 Este 0 -- -- 73
2020-03-23 06:00:00 14.3 6 Noroeste 23 Oeste 0 -- -- 68
2020-03-23 05:00:00 15.9 13 Oeste 27 Noroeste 0 -- -- 53
2020-03-23 04:00:00 13.7 5 Sudoeste 10 Oeste 0 -- -- 80
2020-03-23 03:00:00 13.3 2 Nordeste 8 Noroeste 0 -- -- 80
2020-03-23 02:00:00 14.8 5 Nordeste 15 Nordeste 0 -- -- 83
2020-03-23 01:00:00 16.2 9 Nordeste 19 Noroeste 0 -- -- 80
2020-03-23 00:00:00 15.8 8 Norte 19 Sur 0 -- -- 82
2020-03-22 23:00:00 15.3 6 Norte 10 Noroeste 0 -- -- 81
2020-03-22 22:00:00 16.2 4 Sur 8 Este 0 -- -- 75
2020-03-22 21:00:00 16.7 5 Este 9 Nordeste 0 -- -- 74
2020-03-22 20:00:00 17.3 3 Sudeste 23 Norte 0 -- -- 71
2020-03-22 19:00:00 18.6 16 Norte 31 Noroeste 0 -- -- 63
2020-03-22 18:00:00 20 21 Sudoeste 37 Sudoeste 0 -- -- 59
2020-03-22 17:00:00 19.5 18 Sudoeste 32 Sur 0 -- -- 62
2020-03-22 16:00:00 19.3 22 Sudoeste 37 Sudoeste 0 -- -- 65
2020-03-22 15:00:00 21.5 24 Sur 33 Sudoeste 0 -- -- 54
2020-03-22 14:00:00 22.6 14 Sudeste 25 Sudeste 0 -- -- 53
2020-03-22 13:00:00 22.3 13 Sudeste 22 Sudeste 0 -- -- 52
2020-03-22 12:00:00 21.4 10 Sudeste 19 Sudeste 0 -- -- 55
2020-03-22 11:00:00 20.8 10 Sudeste 20 Sudeste 0 -- -- 55
2020-03-22 10:00:00 19.7 8 Sudeste 14 Sudeste 0 -- -- 56
2020-03-22 09:00:00 19.1 2 Este 8 Sudeste 0 -- -- 57
2020-03-22 08:00:00 15.4 4 Noroeste 7 Oeste 0 -- -- 65
2020-03-22 07:00:00 14.1 4 Noroeste 7 Nordeste 0 -- -- 69
2020-03-22 06:00:00 15 4 Nordeste 8 Norte 0 -- -- 67
2020-03-22 05:00:00 14.3 4 Norte 8 Oeste 0 -- -- 69
2020-03-22 04:00:00 15.6 2 Nordeste 12 Oeste 0 -- -- 64
2020-03-22 03:00:00 16.4 6 Este 12 Norte 0 -- -- 55
2020-03-22 02:00:00 16.8 4 Norte 15 Norte 0 -- -- 54
2020-03-22 01:00:00 16.8 12 Norte 23 Nordeste 0 -- -- 57
2020-03-22 00:00:00 16.5 14 Nordeste 40 Norte 0 -- -- 68
2020-03-21 23:00:00 16.4 21 Norte 34 Norte 0 -- -- 68
2020-03-21 22:00:00 17.2 8 Noroeste 36 Norte 0 -- -- 56
2020-03-21 21:00:00 17.1 6 Noroeste 26 Nordeste 0 -- -- 58
2020-03-21 20:00:00 17.7 7 Norte 19 Norte 0 -- -- 54
2020-03-21 19:00:00 18.2 12 Sudoeste 29 Nordeste 0 -- -- 58
2020-03-21 18:00:00 19 16 Norte 42 Norte 0 -- -- 48
2020-03-21 17:00:00 19.2 23 Nordeste 46 Nordeste 0 -- -- 52
2020-03-21 16:00:00 19.4 26 Nordeste 50 Nordeste 0 -- -- 53
2020-03-21 15:00:00 21.1 28 Nordeste 51 Nordeste 0 -- -- 48
2020-03-21 14:00:00 21 32 Nordeste 53 Nordeste 0 -- -- 51
2020-03-21 13:00:00 20.6 30 Nordeste 49 Nordeste 0 -- -- 49
2020-03-21 12:00:00 20.2 28 Norte 45 Nordeste 0 -- -- 47
2020-03-21 11:00:00 19.2 24 Norte 41 Norte 0 -- -- 53
2020-03-21 10:00:00 17.1 20 Norte 31 Norte 0 -- -- 56
2020-03-21 09:00:00 16.3 18 Norte 37 Norte 0 -- -- 59
2020-03-21 08:00:00 16 18 Norte 44 Nordeste 0 -- -- 63
2020-03-21 07:00:00 16.2 18 Nordeste 39 Norte 0 -- -- 58
2020-03-21 06:00:00 16.4 22 Norte 37 Norte 0 -- -- 56
2020-03-21 05:00:00 16.3 21 Norte 38 Norte 0 -- -- 64
2020-03-21 04:00:00 16.4 23 Nordeste 42 Norte 0 -- -- 61
2020-03-21 03:00:00 16.4 23 Norte 41 Norte 0 -- -- 64
2020-03-21 02:00:00 16.4 18 Norte 38 Nordeste 0 -- -- 71
2020-03-21 01:00:00 16.8 20 Nordeste 43 Nordeste 0 -- -- 75
2020-03-21 00:00:00 16.8 16 Nordeste 36 Nordeste 0 -- -- 80
2020-03-20 23:00:00 16.6 17 Nordeste 30 Nordeste 0 -- -- 82
2020-03-20 22:00:00 17 18 Norte 36 Nordeste 0 -- -- 79
2020-03-20 21:00:00 16.7 16 Nordeste 36 Norte 0 -- -- 80
2020-03-20 20:00:00 17.4 27 Nordeste 45 Nordeste 0 -- -- 73
2020-03-20 19:00:00 19.8 8 Norte 31 Norte 0 -- -- 58
2020-03-20 18:00:00 20.4 5 Noroeste 39 Nordeste 0 -- -- 52
2020-03-20 17:00:00 21.3 17 Nordeste 44 Norte 0 -- -- 47
2020-03-20 16:00:00 23.2 22 Norte 41 Norte 0 -- -- 44
2020-03-20 15:00:00 22.9 16 Sudoeste 39 Sudoeste 0 -- -- 54
2020-03-20 14:00:00 22.7 19 Sudoeste 42 Sudoeste 0 -- -- 55
2020-03-20 13:00:00 22.2 25 Sudoeste 43 Norte 0 -- -- 55
2020-03-20 12:00:00 22.4 30 Nordeste 48 Norte 0 -- -- 47
2020-03-20 11:00:00 21.9 26 Nordeste 49 Nordeste 0 -- -- 54
2020-03-20 10:00:00 21 21 Norte 48 Norte 0 -- -- 53
2020-03-20 09:00:00 19.4 28 Norte 46 Norte 0 -- -- 57
2020-03-20 08:00:00 18 11 Norte 25 Norte 0 -- -- 62
2020-03-20 07:00:00 17.4 19 Norte 39 Nordeste 0 -- -- 67
2020-03-20 06:00:00 17 16 Nordeste 28 Nordeste 0 -- -- 77
2020-03-20 05:00:00 16.9 12 Norte 26 Nordeste 0 -- -- 76
2020-03-20 04:00:00 17.7 10 Norte 32 Norte 0 -- -- 67
2020-03-20 03:00:00 17.4 10 Norte 27 Nordeste 0 -- -- 71
2020-03-20 02:00:00 17.8 20 Nordeste 36 Nordeste 0 -- -- 69
2020-03-20 01:00:00 17.5 15 Nordeste 36 Nordeste 0 -- -- 72
2020-03-20 00:00:00 18.2 25 Nordeste 42 Nordeste 0 -- -- 67
2020-03-19 23:00:00 18.1 19 Nordeste 38 Nordeste 0 -- -- 71
2020-03-19 22:00:00 18.1 18 Nordeste 40 Norte 0 -- -- 71
2020-03-19 21:00:00 18.5 20 Norte 44 Norte 0 -- -- 67
2020-03-19 20:00:00 18.8 15 Nordeste 37 Norte 0 -- -- 65
2020-03-19 19:00:00 19.6 21 Nordeste 45 Nordeste 0 -- -- 60
2020-03-19 18:00:00 20.9 7 Oeste 25 Sudoeste 0 -- -- 57
2020-03-19 17:00:00 21.7 13 Noroeste 50 Norte 0 -- -- 51
2020-03-19 16:00:00 22.6 34 Norte 54 Norte 0 -- -- 47
2020-03-19 15:00:00 23.2 34 Norte 54 Norte 0 -- -- 44
2020-03-19 14:00:00 24.1 36 Norte 62 Norte 0 -- -- 32
2020-03-19 13:00:00 24 33 Norte 54 Nordeste 0 -- -- 31
2020-03-19 12:00:00 22.6 32 Norte 53 Norte 0 -- -- 44
2020-03-19 11:00:00 23.5 24 Norte 44 Noroeste 0 -- -- 49
2020-03-19 10:00:00 22.8 18 Nordeste 35 Nordeste 0 -- -- 50
2020-03-19 09:00:00 20.4 9 Sur 17 Sudeste 0 -- -- 64
2020-03-19 08:00:00 17.1 12 Sudoeste 17 Sudoeste 0 -- -- 71
2020-03-19 07:00:00 15.5 8 Sudoeste 16 Noroeste 0 -- -- 72
2020-03-19 06:00:00 14.9 9 Noroeste 12 Nordeste 0 -- -- 72
2020-03-19 05:00:00 14.7 8 Noroeste 14 Noroeste 0 -- -- 72
2020-03-19 04:00:00 15.1 9 Oeste 16 Noroeste 0 -- -- 69
2020-03-19 03:00:00 14.4 5 Nordeste 10 Oeste 0 -- -- 69
2020-03-19 02:00:00 16.6 5 Noroeste 18 Sur 0 -- -- 65
2020-03-19 01:00:00 16.9 7 Sur 27 Oeste 0 -- -- 63
2020-03-19 00:00:00 16.2 3 Norte 12 Norte 0 -- -- 61
2020-03-18 23:00:00 17.3 7 Noroeste 30 Nordeste 0 -- -- 45
2020-03-18 22:00:00 18 16 Norte 35 Norte 0 -- -- 49
2020-03-18 21:00:00 17.9 21 Norte 41 Norte 0 -- -- 60
2020-03-18 20:00:00 18.2 24 Norte 36 Noroeste 0 -- -- 57
2020-03-18 19:00:00 18.9 7 Sudoeste 20 Nordeste 0 -- -- 58
2020-03-18 18:00:00 19.7 8 Sur 20 Sur 0 -- -- 56
2020-03-18 17:00:00 22.1 15 Sur 30 Sudoeste 0 -- -- 48
2020-03-18 16:00:00 20.6 19 Sudoeste 31 Sudoeste 0 -- -- 52
2020-03-18 15:00:00 23.4 22 Sudoeste 34 Sudoeste 0 -- -- 46
2020-03-18 14:00:00 20 14 Sudoeste 29 Sudoeste 0 -- -- 54
2020-03-18 13:00:00 20.2 12 Sudoeste 34 Noroeste 0 -- -- 54
2020-03-18 12:00:00 22.3 15 Norte 44 Norte 0 -- -- 39
2020-03-18 11:00:00 20 27 Norte 51 Norte 0 -- -- 50
2020-03-18 10:00:00 20 20 Norte 41 Norte 0 -- -- 41
2020-03-18 09:00:00 17.9 11 Noroeste 36 Norte 0 -- -- 51
2020-03-18 08:00:00 17 23 Norte 45 Nordeste 0 -- -- 54
2020-03-18 07:00:00 15.8 24 Norte 43 Nordeste 0 -- -- 66
2020-03-18 06:00:00 15.7 15 Norte 51 Norte 0 -- -- 63
2020-03-18 05:00:00 15.1 19 Norte 40 Nordeste 0 -- -- 72
2020-03-18 04:00:00 15.9 20 Nordeste 51 Norte 0 -- -- 61
2020-03-18 03:00:00 15.1 23 Nordeste 46 Nordeste 0 -- -- 72
2020-03-18 02:00:00 16 24 Norte 46 Norte 0 -- -- 66
2020-03-18 01:00:00 15.3 28 Norte 55 Nordeste 0 -- -- 74
2020-03-18 00:00:00 15.7 26 Norte 54 Norte 0 -- -- 69
2020-03-17 23:00:00 15.8 29 Nordeste 50 Nordeste 0 -- -- 69
2020-03-17 22:00:00 16 25 Nordeste 47 Norte 0 -- -- 68
2020-03-17 21:00:00 16.3 24 Nordeste 48 Norte 0 -- -- 68
2020-03-17 20:00:00 16.5 30 Norte 51 Norte 0 -- -- 62
2020-03-17 19:00:00 17.2 27 Norte 55 Nordeste 0 -- -- 56
2020-03-17 18:00:00 18.1 26 Norte 51 Norte 0 -- -- 53
2020-03-17 17:00:00 18.1 35 Norte 53 Nordeste 0 -- -- 59
2020-03-17 16:00:00 19.8 33 Nordeste 57 Norte 0 -- -- 53
2020-03-17 15:00:00 20.1 31 Nordeste 56 Norte 0 -- -- 52
2020-03-17 14:00:00 18.7 35 Nordeste 54 Norte 0 -- -- 55
2020-03-17 13:00:00 19.4 35 Norte 60 Norte 0 -- -- 56
2020-03-17 12:00:00 18.5 28 Norte 45 Norte 0 -- -- 56
2020-03-17 11:00:00 17.8 29 Norte 42 Norte 0 -- -- 61
2020-03-17 10:00:00 16.5 24 Norte 42 Norte 0 -- -- 67
2020-03-17 09:00:00 15.9 27 Norte 48 Norte 0 -- -- 67
2020-03-17 08:00:00 15.6 25 Norte 41 Norte 0 -- -- 66
2020-03-17 07:00:00 15.6 23 Norte 45 Norte 0 -- -- 63
2020-03-17 06:00:00 15 26 Norte 42 Norte 0 -- -- 71
2020-03-17 05:00:00 15.1 24 Norte 42 Norte 0 -- -- 71
2020-03-17 04:00:00 14.8 22 Norte 44 Norte 0 -- -- 71
2020-03-17 03:00:00 15.8 27 Norte 46 Norte 0 -- -- 62
2020-03-17 02:00:00 16.5 26 Norte 50 Norte 0 -- -- 58
2020-03-17 01:00:00 16.5 28 Norte 54 Norte 0 -- -- 61
2020-03-17 00:00:00 16.8 24 Nordeste 53 Nordeste 0 -- -- 63
2020-03-16 23:00:00 17 25 Norte 46 Norte 0 -- -- 70
2020-03-16 22:00:00 17.3 30 Norte 55 Nordeste 0 -- -- 70
2020-03-16 21:00:00 17.4 27 Nordeste 53 Nordeste 0 -- -- 73
2020-03-16 20:00:00 17.1 30 Norte 53 Nordeste 0 -- -- 71
2020-03-16 19:00:00 17.9 28 Nordeste 52 Norte 0 -- -- 69
2020-03-16 18:00:00 19.7 32 Norte 55 Norte 0 -- -- 60
2020-03-16 17:00:00 21.3 31 Nordeste 57 Nordeste 0 -- -- 50
2020-03-16 16:00:00 21.7 36 Nordeste 61 Nordeste 0 -- -- 49
2020-03-16 15:00:00 22.3 36 Nordeste 62 Norte 0 -- -- 46
2020-03-16 14:00:00 22.4 34 Norte 54 Norte 0 -- -- 44
2020-03-16 13:00:00 22.2 36 Norte 59 Norte 0 -- -- 43
2020-03-16 12:00:00 21.2 39 Norte 60 Norte 0 -- -- 46
2020-03-16 11:00:00 20.7 32 Norte 54 Nordeste 0 -- -- 48
2020-03-16 10:00:00 19.2 33 Norte 55 Norte 0 -- -- 58
2020-03-16 09:00:00 18.3 28 Norte 46 Norte 0 -- -- 66
2020-03-16 08:00:00 17.6 23 Norte 43 Norte 0 -- -- 68
2020-03-16 07:00:00 17.1 21 Norte 36 Norte 0 -- -- 68
2020-03-16 06:00:00 17.1 23 Norte 45 Norte 0 -- -- 66
2020-03-16 05:00:00 17.1 23 Norte 37 Norte 0 -- -- 71
2020-03-16 04:00:00 17.3 20 Norte 35 Nordeste 0 -- -- 74
2020-03-16 03:00:00 17.7 18 Norte 30 Norte 0 -- -- 72
2020-03-16 02:00:00 17.6 19 Norte 36 Nordeste 0 -- -- 70
2020-03-16 01:00:00 17.7 16 Norte 36 Norte 0 -- -- 62
2020-03-16 00:00:00 17.3 20 Norte 41 Norte 0 -- -- 66
2020-03-15 23:00:00 17.6 24 Norte 37 Norte 0 -- -- 68
2020-03-15 22:00:00 17.8 17 Nordeste 35 Nordeste 0 -- -- 63
2020-03-15 21:00:00 17.6 23 Norte 41 Norte 0 -- -- 61
2020-03-15 20:00:00 17.7 27 Norte 50 Norte 0 -- -- 61
2020-03-15 19:00:00 18 27 Norte 47 Norte 0 -- -- 66
2020-03-15 18:00:00 18.4 26 Nordeste 54 Nordeste 0 -- -- 62
2020-03-15 17:00:00 19 26 Norte 41 Noroeste 0 -- -- 65
2020-03-15 16:00:00 21.5 10 Nordeste 34 Nordeste 0 -- -- 46
2020-03-15 15:00:00 20.6 20 Oeste 48 Norte 0 -- -- 52
2020-03-15 14:00:00 20.6 31 Norte 52 Norte 0 -- -- 48
2020-03-15 13:00:00 20.5 28 Norte 45 Norte 0 -- -- 49
2020-03-15 12:00:00 20.4 30 Norte 54 Norte 0 -- -- 49
2020-03-15 11:00:00 21.2 28 Nordeste 48 Nordeste 0 -- -- 49
2020-03-15 10:00:00 19.5 18 Nordeste 35 Nordeste 0 -- -- 59
2020-03-15 09:00:00 17.8 21 Nordeste 33 Norte 0 -- -- 65
2020-03-15 08:00:00 17.5 17 Nordeste 30 Norte 0 -- -- 63
2020-03-15 07:00:00 16.4 18 Norte 32 Norte 0 -- -- 68
2020-03-15 06:00:00 16.6 10 Nordeste 37 Norte 0 -- -- 64
2020-03-15 05:00:00 16.4 15 Nordeste 28 Norte 0 -- -- 65
2020-03-15 04:00:00 17.2 17 Norte 42 Nordeste 0 -- -- 60
2020-03-15 03:00:00 16.6 20 Nordeste 36 Nordeste 0 -- -- 67
2020-03-15 02:00:00 16.8 14 Nordeste 28 Norte 0 -- -- 65
2020-03-15 01:00:00 18 18 Norte 32 Norte 0 -- -- 54
2020-03-15 00:00:00 17.8 15 Norte 30 Norte 0 -- -- 56
2020-03-14 23:00:00 17.6 16 Norte 33 Nordeste 0 -- -- 54
2020-03-14 22:00:00 18.1 18 Norte 39 Norte 0 -- -- 52
2020-03-14 21:00:00 17.8 19 Norte 38 Norte 0 -- -- 54
2020-03-14 20:00:00 18.4 19 Norte 35 Norte 0 -- -- 50
2020-03-14 19:00:00 18.4 22 Nordeste 46 Nordeste 0 -- -- 54
2020-03-14 18:00:00 19.8 26 Nordeste 47 Norte 0 -- -- 50
2020-03-14 17:00:00 20.8 23 Nordeste 43 Nordeste 0 -- -- 51
2020-03-14 16:00:00 20.9 23 Nordeste 44 Norte 0 -- -- 52
2020-03-14 15:00:00 21.9 26 Nordeste 46 Norte 0 -- -- 51
2020-03-14 14:00:00 21.8 24 Nordeste 46 Nordeste 0 -- -- 54
2020-03-14 13:00:00 21.2 28 Nordeste 50 Nordeste 0 -- -- 58
2020-03-14 12:00:00 21.4 29 Nordeste 48 Nordeste 0 -- -- 58
2020-03-14 11:00:00 20.7 28 Nordeste 45 Nordeste 0 -- -- 60
2020-03-14 10:00:00 20.4 26 Nordeste 51 Norte 0 -- -- 59
2020-03-14 09:00:00 19 30 Nordeste 52 Nordeste 0 -- -- 58
2020-03-14 08:00:00 17.4 34 Nordeste 55 Nordeste 0 -- -- 68
2020-03-14 07:00:00 16.9 30 Nordeste 49 Nordeste 0 -- -- 75
2020-03-14 06:00:00 17 24 Nordeste 43 Nordeste 0 -- -- 75
2020-03-14 05:00:00 17 23 Nordeste 48 Nordeste 0 -- -- 74
2020-03-14 04:00:00 17.1 28 Nordeste 50 Nordeste 0 -- -- 75
2020-03-14 03:00:00 17.3 31 Nordeste 54 Nordeste 0 -- -- 77
2020-03-14 02:00:00 17.3 28 Nordeste 47 Nordeste 0 -- -- 79
2020-03-14 01:00:00 17.6 28 Nordeste 49 Nordeste 0 -- -- 77
2020-03-14 00:00:00 17.9 28 Nordeste 49 Nordeste 0 -- -- 72
2020-03-13 23:00:00 17.7 27 Nordeste 57 Norte 0 -- -- 75
2020-03-13 22:00:00 18 26 Nordeste 52 Nordeste 0 -- -- 72
2020-03-13 21:00:00 18.2 32 Nordeste 56 Nordeste 0 -- -- 69
2020-03-13 20:00:00 18.4 31 Nordeste 50 Norte 0 -- -- 71
2020-03-13 19:00:00 18.9 24 Nordeste 46 Nordeste 0 -- -- 67
2020-03-13 18:00:00 20 25 Nordeste 44 Nordeste 0 -- -- 65
2020-03-13 17:00:00 20.2 26 Nordeste 54 Nordeste 0 -- -- 64
2020-03-13 16:00:00 21.6 30 Nordeste 48 Nordeste 0 -- -- 60
2020-03-13 15:00:00 21.2 27 Nordeste 46 Nordeste 0 -- -- 61
2020-03-13 14:00:00 21.1 27 Nordeste 48 Nordeste 0 -- -- 62
2020-03-13 13:00:00 21.7 30 Nordeste 51 Nordeste 0 -- -- 59
2020-03-13 12:00:00 22.1 31 Nordeste 54 Norte 0 -- -- 58
2020-03-13 11:00:00 20.5 33 Nordeste 53 Nordeste 0 -- -- 62
2020-03-13 10:00:00 19.9 32 Nordeste 56 Nordeste 0 -- -- 66
2020-03-13 09:00:00 18.6 31 Nordeste 52 Nordeste 0 -- -- 71
2020-03-13 08:00:00 17.4 26 Nordeste 52 Nordeste 0 -- -- 75
2020-03-13 07:00:00 17 26 Nordeste 49 Nordeste 0 -- -- 77
2020-03-13 06:00:00 17.1 26 Nordeste 53 Nordeste 0 -- -- 78
2020-03-13 05:00:00 17.2 31 Nordeste 57 Nordeste 0 -- -- 78
2020-03-13 04:00:00 17.2 31 Nordeste 54 Nordeste 0 -- -- 78
2020-03-13 03:00:00 17.1 28 Nordeste 50 Norte 0 -- -- 79
2020-03-13 02:00:00 17.3 24 Nordeste 40 Nordeste 0 -- -- 79
2020-03-13 01:00:00 17.9 21 Nordeste 36 Nordeste 0 -- -- 72
2020-03-13 00:00:00 18.7 18 Nordeste 33 Nordeste 0 -- -- 61
2020-03-12 23:00:00 17.9 18 Nordeste 32 Nordeste 0 -- -- 82
2020-03-12 22:00:00 18.1 17 Nordeste 34 Nordeste 0 -- -- 85
2020-03-12 21:00:00 18.4 20 Norte 34 Nordeste 0 -- -- 84
2020-03-12 20:00:00 18.7 19 Nordeste 37 Nordeste 0 -- -- 84
2020-03-12 19:00:00 19.8 19 Nordeste 33 Nordeste 0 -- -- 80
2020-03-12 18:00:00 22.5 16 Nordeste 29 Nordeste 0 -- -- 71
2020-03-12 17:00:00 24.4 17 Nordeste 28 Nordeste 0 -- -- 61
2020-03-12 16:00:00 25.6 15 Nordeste 28 Nordeste 0 -- -- 41
2020-03-12 15:00:00 26.7 17 Nordeste 30 Este 0 -- -- 35
2020-03-12 14:00:00 26.9 15 Nordeste 29 Nordeste 0 -- -- 33
2020-03-12 13:00:00 26.3 18 Nordeste 28 Nordeste 0 -- -- 32
2020-03-12 12:00:00 27.2 14 Nordeste 28 Nordeste 0 -- -- 28
2020-03-12 11:00:00 27 15 Nordeste 24 Nordeste 0 -- -- 29
2020-03-12 10:00:00 24.2 13 Nordeste 26 Norte 0 -- -- 59
2020-03-12 09:00:00 20.6 13 Nordeste 22 Nordeste 0 -- -- 63
2020-03-12 08:00:00 17 17 Norte 26 Norte 0 -- -- 78
2020-03-12 07:00:00 16.4 18 Nordeste 35 Nordeste 0 -- -- 89
2020-03-12 06:00:00 17.6 10 Norte 18 Norte 0 -- -- 29
2020-03-12 05:00:00 18.8 14 Norte 17 Norte 0 -- -- 26
2020-03-12 04:00:00 18.5 13 Norte 29 Norte 0 -- -- 39
2020-03-12 03:00:00 18.8 16 Norte 33 Nordeste 0 -- -- 58
2020-03-12 02:00:00 17.8 18 Nordeste 35 Nordeste 0 -- -- 72
2020-03-12 01:00:00 17 16 Nordeste 30 Nordeste 0 -- -- 83
2020-03-12 00:00:00 17.1 19 Nordeste 36 Nordeste 0 -- -- 91
2020-03-11 23:00:00 17.7 18 Nordeste 31 Nordeste 0 -- -- 90
2020-03-11 22:00:00 20.6 12 Noroeste 15 Noroeste 0 -- -- 33
2020-03-11 21:00:00 19.3 9 Nordeste 18 Norte 0 -- -- 71
2020-03-11 20:00:00 19.7 10 Nordeste 21 Nordeste 0 -- -- 74
2020-03-11 19:00:00 21.8 12 Nordeste 23 Nordeste 0 -- -- 49
2020-03-11 18:00:00 22.3 15 Nordeste 23 Nordeste 0 -- -- 50
2020-03-11 17:00:00 23.6 17 Nordeste 26 Nordeste 0 -- -- 48
2020-03-11 16:00:00 23.5 15 Nordeste 24 Nordeste 0 -- -- 44
2020-03-11 15:00:00 24.7 16 Nordeste 26 Este 0 -- -- 42
2020-03-11 14:00:00 24.7 17 Este 24 Este 0 -- -- 41
2020-03-11 13:00:00 26.9 13 Nordeste 22 Nordeste 0 -- -- 33
2020-03-11 12:00:00 22.9 12 Nordeste 22 Nordeste 0 -- -- 62
2020-03-11 11:00:00 21.6 14 Nordeste 23 Nordeste 0 -- -- 70
2020-03-11 10:00:00 18.7 15 Nordeste 28 Nordeste 0 -- -- 79
2020-03-11 09:00:00 17.8 17 Nordeste 26 Nordeste 0 -- -- 82
2020-03-11 08:00:00 16.4 12 Nordeste 25 Nordeste 0 -- -- 87
2020-03-11 07:00:00 15.6 15 Nordeste 26 Nordeste 0 -- -- 88
2020-03-11 06:00:00 15.6 12 Nordeste 25 Nordeste 0 -- -- 88
2020-03-11 05:00:00 15.8 14 Nordeste 29 Nordeste 0 -- -- 89
2020-03-11 04:00:00 15.9 17 Nordeste 34 Nordeste 0 -- -- 90
2020-03-11 03:00:00 16 18 Nordeste 32 Nordeste 0 -- -- 89
2020-03-11 02:00:00 16 13 Nordeste 30 Nordeste 0 -- -- 87
2020-03-11 01:00:00 16.4 18 Nordeste 29 Nordeste 0 -- -- 85
2020-03-11 00:00:00 16.6 16 Norte 25 Nordeste 0 -- -- 83
2020-03-10 23:00:00 17.1 18 Nordeste 31 Norte 0 -- -- 84
2020-03-10 22:00:00 17.4 18 Nordeste 32 Nordeste 0 -- -- 87
2020-03-10 21:00:00 17.9 14 Nordeste 25 Nordeste 0 -- -- 84
2020-03-10 20:00:00 18.4 16 Nordeste 27 Nordeste 0 -- -- 81
2020-03-10 19:00:00 19 17 Nordeste 30 Nordeste 0 -- -- 78
2020-03-10 18:00:00 20.4 17 Nordeste 37 Nordeste 0 -- -- 74
2020-03-10 17:00:00 22.1 22 Nordeste 32 Nordeste 0 -- -- 68
2020-03-10 16:00:00 24.2 19 Nordeste 33 Nordeste 0 -- -- 60
2020-03-10 15:00:00 24.7 21 Nordeste 32 Nordeste 0 -- -- 55
2020-03-10 14:00:00 25.1 19 Nordeste 28 Nordeste 0 -- -- 56
2020-03-10 13:00:00 24.6 16 Nordeste 29 Nordeste 0 -- -- 58
2020-03-10 12:00:00 21.5 20 Este 30 Nordeste 0 -- -- 69
2020-03-10 11:00:00 22.1 18 Nordeste 32 Nordeste 0 -- -- 61
2020-03-10 10:00:00 20.8 18 Nordeste 33 Nordeste 0 -- -- 63
2020-03-10 09:00:00 20.4 20 Nordeste 33 Nordeste 0 -- -- 60
2020-03-10 08:00:00 19 18 Nordeste 31 Nordeste 0 -- -- 49
2020-03-10 07:00:00 18.6 21 Nordeste 34 Nordeste 0 -- -- 44
2020-03-10 06:00:00 17.6 15 Nordeste 35 Nordeste 0 -- -- 57
2020-03-10 05:00:00 17.1 17 Nordeste 33 Nordeste 0 -- -- 66
2020-03-10 04:00:00 18.1 19 Nordeste 32 Nordeste 0 -- -- 56
2020-03-10 03:00:00 20.7 19 Nordeste 33 Nordeste 0 -- -- 25
2020-03-10 02:00:00 20.4 22 Nordeste 38 Nordeste 0 -- -- 31
2020-03-10 01:00:00 20 22 Nordeste 33 Norte 0 -- -- 38
2020-03-10 00:00:00 20.6 19 Nordeste 31 Nordeste 0 -- -- 34
2020-03-09 23:00:00 19.8 19 Nordeste 34 Norte 0 -- -- 43
2020-03-09 22:00:00 18.6 22 Norte 37 Nordeste 0 -- -- 72
2020-03-09 21:00:00 18.9 23 Nordeste 35 Nordeste 0 -- -- 71
2020-03-09 20:00:00 19.3 21 Nordeste 37 Norte 0 -- -- 78
2020-03-09 19:00:00 20.3 20 Nordeste 34 Nordeste 0 -- -- 67
2020-03-09 18:00:00 22.2 19 Nordeste 35 Nordeste 0 -- -- 65
2020-03-09 17:00:00 24.4 20 Nordeste 31 Nordeste 0 -- -- 58
2020-03-09 16:00:00 26.5 18 Nordeste 31 Nordeste 0 -- -- 43
2020-03-09 15:00:00 27.4 19 Nordeste 31 Nordeste 0 -- -- 31
2020-03-09 14:00:00 27.9 17 Nordeste 28 Nordeste 0 -- -- 24
2020-03-09 13:00:00 27.7 17 Nordeste 34 Nordeste 0 -- -- 25
2020-03-09 12:00:00 27.2 18 Nordeste 34 Norte 0 -- -- 24
2020-03-09 11:00:00 25.1 23 Norte 35 Nordeste 0 -- -- 34
2020-03-09 10:00:00 23.9 18 Nordeste 31 Norte 0 -- -- 43
2020-03-09 09:00:00 22.3 14 Nordeste 31 Norte 0 -- -- 44
2020-03-09 08:00:00 18.8 14 Norte 26 Nordeste 0 -- -- 46
2020-03-09 07:00:00 17.7 11 Nordeste 22 Norte 0 -- -- 53
2020-03-09 06:00:00 20.3 14 Norte 30 Nordeste 0 -- -- 40
2020-03-09 05:00:00 20.2 18 Norte 33 Nordeste 0 -- -- 45
2020-03-09 04:00:00 20 20 Nordeste 39 Norte 0 -- -- 48
2020-03-09 03:00:00 19.9 22 Nordeste 43 Nordeste 0 -- -- 49
2020-03-09 02:00:00 20.1 26 Nordeste 45 Nordeste 0 -- -- 48
2020-03-09 01:00:00 20 23 Nordeste 52 Norte 0 -- -- 49
2020-03-09 00:00:00 20.5 24 Nordeste 50 Norte 0 -- -- 44
2020-03-08 23:00:00 20.4 28 Norte 39 Norte 0 -- -- 48
2020-03-08 22:00:00 19.2 22 Norte 36 Norte 0 -- -- 65
2020-03-08 21:00:00 18.7 20 Nordeste 42 Nordeste 0 -- -- 80
2020-03-08 20:00:00 19.1 26 Norte 42 Norte 0 -- -- 80
2020-03-08 19:00:00 20.3 21 Norte 33 Nordeste 0 -- -- 72
2020-03-08 18:00:00 22.8 17 Nordeste 34 Nordeste 0 -- -- 63
2020-03-08 17:00:00 25.9 17 Nordeste 36 Nordeste 0 -- -- 52
2020-03-08 16:00:00 25.2 20 Nordeste 35 Nordeste 0 -- -- 53
2020-03-08 15:00:00 26.5 22 Nordeste 39 Nordeste 0 -- -- 41
2020-03-08 14:00:00 25.8 22 Nordeste 37 Nordeste 0 -- -- 49
2020-03-08 13:00:00 26.3 21 Nordeste 40 Norte 0 -- -- 45
2020-03-08 12:00:00 26.8 22 Nordeste 40 Nordeste 0 -- -- 33
2020-03-08 11:00:00 25.5 23 Norte 34 Norte 0 -- -- 39
2020-03-08 10:00:00 22.9 23 Norte 35 Nordeste 0 -- -- 50
2020-03-08 09:00:00 21.1 18 Nordeste 32 Nordeste 0 -- -- 51
2020-03-08 08:00:00 18.2 20 Nordeste 35 Nordeste 0 -- -- 59
2020-03-08 07:00:00 18 21 Nordeste 37 Nordeste 0 -- -- 58
2020-03-08 06:00:00 18.9 24 Nordeste 42 Norte 0 -- -- 51
2020-03-08 05:00:00 19 24 Nordeste 47 Nordeste 0 -- -- 51
2020-03-08 04:00:00 18.7 22 Nordeste 40 Nordeste 0 -- -- 56
2020-03-08 03:00:00 17.3 33 Nordeste 55 Nordeste 0 -- -- 75
2020-03-08 02:00:00 17.4 31 Norte 61 Nordeste 0 -- -- 73
2020-03-08 01:00:00 17.4 41 Nordeste 61 Nordeste 0 -- -- 74
2020-03-08 00:00:00 17.3 14 Nordeste 27 Norte 0 -- -- 68
2020-03-07 23:00:00 17.1 13 Norte 39 Norte 0 -- -- 67
2020-03-07 22:00:00 17.6 18 Norte 37 Norte 0 -- -- 71
2020-03-07 21:00:00 17.7 20 Nordeste 38 Norte 0 -- -- 68
2020-03-07 20:00:00 18 19 Norte 37 Norte 0 -- -- 66
2020-03-07 19:00:00 18.6 23 Norte 50 Norte 0 -- -- 65
2020-03-07 18:00:00 19.6 32 Nordeste 56 Nordeste 0 -- -- 62
2020-03-07 17:00:00 20.8 35 Nordeste 58 Nordeste 0 -- -- 57
2020-03-07 16:00:00 21.3 36 Nordeste 58 Norte 0 -- -- 56
2020-03-07 15:00:00 21.8 34 Nordeste 57 Nordeste 0 -- -- 54
2020-03-07 14:00:00 22 35 Nordeste 65 Nordeste 0 -- -- 55
2020-03-07 13:00:00 22.6 39 Nordeste 60 Nordeste 0 -- -- 50
2020-03-07 12:00:00 22 35 Nordeste 60 Norte 0 -- -- 50
2020-03-07 11:00:00 20.8 36 Nordeste 58 Nordeste 0 -- -- 53
2020-03-07 10:00:00 19.6 35 Norte 57 Norte 0 -- -- 56
2020-03-07 09:00:00 18.5 28 Nordeste 50 Norte 0 -- -- 62
2020-03-07 08:00:00 17.4 26 Norte 48 Norte 0 -- -- 62
2020-03-07 07:00:00 16.9 28 Norte 50 Norte 0 -- -- 64
2020-03-07 06:00:00 16.9 30 Norte 49 Norte 0 -- -- 64
2020-03-07 05:00:00 16.8 33 Norte 53 Norte 0 -- -- 64
2020-03-07 04:00:00 17 33 Norte 55 Norte 0 -- -- 64
2020-03-07 03:00:00 16.9 36 Norte 59 Nordeste 0 -- -- 64
2020-03-07 02:00:00 16.7 34 Norte 60 Norte 0 -- -- 66
2020-03-07 01:00:00 16.8 34 Norte 55 Nordeste 0 -- -- 64
2020-03-07 00:00:00 16.9 33 Nordeste 57 Norte 0 -- -- 65
2020-03-06 23:00:00 17 31 Norte 59 Norte 0 -- -- 63
2020-03-06 22:00:00 17.3 36 Norte 63 Nordeste 0 -- -- 63
2020-03-06 21:00:00 17.4 38 Norte 55 Nordeste 0 -- -- 61
2020-03-06 20:00:00 17.5 35 Norte 58 Norte 0 -- -- 62
2020-03-06 19:00:00 17.8 34 Norte 62 Nordeste 0 -- -- 61
2020-03-06 18:00:00 19.2 37 Norte 67 Norte 0 -- -- 58
2020-03-06 17:00:00 19.7 36 Nordeste 64 Norte 0 -- -- 58
2020-03-06 16:00:00 20.1 39 Norte 66 Norte 0 -- -- 55
2020-03-06 15:00:00 20.3 45 Nordeste 73 Norte 0 -- -- 52
2020-03-06 14:00:00 20.5 45 Nordeste 73 Norte 0 -- -- 55
2020-03-06 13:00:00 20.1 44 Nordeste 69 Norte 0 -- -- 57
2020-03-06 12:00:00 19.8 41 Norte 75 Norte 0 -- -- 59
2020-03-06 11:00:00 19.2 45 Nordeste 70 Nordeste 0 -- -- 58
2020-03-06 10:00:00 18.6 39 Norte 67 Nordeste 0 -- -- 61
2020-03-06 09:00:00 17.3 39 Nordeste 73 Norte 0 -- -- 67
2020-03-06 08:00:00 17 37 Norte 63 Nordeste 0 -- -- 72
2020-03-06 07:00:00 16.5 39 Nordeste 61 Norte 0 -- -- 85
2020-03-06 06:00:00 16.5 40 Nordeste 67 Nordeste 0 -- -- 88
2020-03-06 05:00:00 16.9 31 Nordeste 53 Nordeste 0 -- -- 88
2020-03-06 04:00:00 17.3 30 Nordeste 64 Nordeste 0 -- -- 88
2020-03-06 03:00:00 18.8 33 Norte 57 Nordeste 0 -- -- 71
2020-03-06 02:00:00 18.8 35 Norte 56 Norte 0 -- -- 67
2020-03-06 01:00:00 18.5 32 Norte 67 Norte 0 -- -- 69
2020-03-06 00:00:00 18.5 39 Nordeste 68 Nordeste 0 -- -- 70
2020-03-05 23:00:00 18.4 41 Nordeste 71 Norte 0 -- -- 71
2020-03-05 22:00:00 18.2 42 Nordeste 71 Nordeste 0 -- -- 70
2020-03-05 21:00:00 18.1 39 Nordeste 67 Nordeste 0 -- -- 70
2020-03-05 20:00:00 18 32 Nordeste 51 Nordeste 0 -- -- 72
2020-03-05 19:00:00 18.6 30 Nordeste 63 Norte 0 -- -- 69
2020-03-05 18:00:00 20.1 33 Nordeste 57 Nordeste 0 -- -- 63
2020-03-05 17:00:00 21.3 35 Nordeste 65 Norte 0 -- -- 60
2020-03-05 16:00:00 21.9 35 Nordeste 65 Norte 0 -- -- 60
2020-03-05 15:00:00 22.4 37 Nordeste 65 Nordeste 0 -- -- 58
2020-03-05 14:00:00 22.1 38 Nordeste 61 Norte 0 -- -- 58
2020-03-05 13:00:00 22.3 38 Nordeste 64 Nordeste 0 -- -- 61
2020-03-05 12:00:00 21.5 35 Nordeste 59 Nordeste 0 -- -- 64
2020-03-05 11:00:00 21.1 36 Nordeste 61 Nordeste 0 -- -- 67
2020-03-05 10:00:00 20.1 34 Nordeste 59 Nordeste 0 -- -- 69
2020-03-05 09:00:00 18.9 27 Nordeste 51 Nordeste 0 -- -- 75
2020-03-05 08:00:00 17.2 30 Nordeste 51 Nordeste 0 -- -- 82
2020-03-05 07:00:00 17.1 28 Nordeste 50 Nordeste 0 -- -- 82
2020-03-05 06:00:00 17 26 Nordeste 43 Norte 0 -- -- 83
2020-03-05 05:00:00 17 24 Nordeste 45 Nordeste 0 -- -- 82
2020-03-05 04:00:00 17.2 13 Nordeste 26 Norte 0 -- -- 80
2020-03-05 03:00:00 17.1 17 Norte 30 Nordeste 0 -- -- 82
2020-03-05 02:00:00 17.2 19 Norte 36 Norte 0 -- -- 82
2020-03-05 01:00:00 17.5 19 Nordeste 33 Norte 0 -- -- 82
2020-03-05 00:00:00 17.7 21 Norte 33 Norte 0 -- -- 82
2020-03-04 23:00:00 17.6 13 Norte 28 Nordeste 0 -- -- 81
2020-03-04 22:00:00 17.7 14 Norte 26 Nordeste 0 -- -- 85
2020-03-04 21:00:00 17.9 13 Nordeste 23 Nordeste 0 -- -- 86
2020-03-04 20:00:00 18.5 12 Norte 25 Nordeste 0 -- -- 82
2020-03-04 19:00:00 19.9 16 Nordeste 35 Nordeste 0 -- -- 75
2020-03-04 18:00:00 22.3 18 Nordeste 36 Nordeste 0 -- -- 66
2020-03-04 17:00:00 23 23 Nordeste 39 Nordeste 0 -- -- 64
2020-03-04 16:00:00 24.1 21 Nordeste 41 Nordeste 0 -- -- 61
2020-03-04 15:00:00 25.2 18 Nordeste 31 Nordeste 0 -- -- 58
2020-03-04 14:00:00 25.4 17 Nordeste 29 Nordeste 0 -- -- 56
2020-03-04 13:00:00 24.4 15 Nordeste 31 Nordeste 0 -- -- 62
2020-03-04 12:00:00 24 17 Nordeste 31 Nordeste 0 -- -- 63
2020-03-04 11:00:00 23.7 15 Nordeste 27 Nordeste 0 -- -- 62
2020-03-04 10:00:00 22.2 15 Norte 25 Norte 0 -- -- 57
2020-03-04 09:00:00 20 11 Norte 22 Norte 0 -- -- 63
2020-03-04 08:00:00 18.2 10 Norte 27 Norte 0 -- -- 58
2020-03-04 07:00:00 17 21 Nordeste 40 Nordeste 0 -- -- 70
2020-03-04 06:00:00 17.3 17 Nordeste 36 Nordeste 0 -- -- 66
2020-03-04 05:00:00 18 16 Nordeste 33 Norte 0 -- -- 54
2020-03-04 04:00:00 17.9 16 Nordeste 29 Nordeste 0 -- -- 56
2020-03-04 03:00:00 17.1 13 Nordeste 29 Nordeste 0 -- -- 70
2020-03-04 02:00:00 17.1 17 Nordeste 38 Nordeste 0 -- -- 80
2020-03-04 01:00:00 17.4 25 Nordeste 37 Nordeste 0 -- -- 79
2020-03-04 00:00:00 17.6 19 Nordeste 45 Nordeste 0 -- -- 77
2020-03-03 23:00:00 17.7 27 Nordeste 45 Nordeste 0 -- -- 79
2020-03-03 22:00:00 17.8 28 Nordeste 48 Nordeste 0 -- -- 79
2020-03-03 21:00:00 17.9 26 Nordeste 45 Nordeste 0 -- -- 79
2020-03-03 20:00:00 18 24 Nordeste 41 Nordeste 0 -- -- 78
2020-03-03 19:00:00 18.8 20 Nordeste 43 Nordeste 0 -- -- 75
2020-03-03 18:00:00 21.1 24 Nordeste 41 Nordeste 0 -- -- 66
2020-03-03 17:00:00 22.1 26 Nordeste 48 Nordeste 0 -- -- 64
2020-03-03 16:00:00 22.9 22 Nordeste 43 Nordeste 0 -- -- 61
2020-03-03 15:00:00 23.3 24 Nordeste 49 Nordeste 0 -- -- 59
2020-03-03 14:00:00 23 30 Nordeste 50 Nordeste 0 -- -- 60
2020-03-03 13:00:00 23 29 Nordeste 47 Nordeste 0 -- -- 60
2020-03-03 12:00:00 21.9 26 Nordeste 43 Nordeste 0 -- -- 64
2020-03-03 11:00:00 21.2 26 Nordeste 43 Nordeste 0 -- -- 64
2020-03-03 10:00:00 20.6 23 Nordeste 44 Nordeste 0 -- -- 67
2020-03-03 09:00:00 19 24 Nordeste 44 Nordeste 0 -- -- 72
2020-03-03 08:00:00 17.5 19 Nordeste 40 Norte 0 -- -- 79
2020-03-03 07:00:00 17.2 22 Nordeste 45 Nordeste 0 -- -- 79
2020-03-03 06:00:00 17.3 20 Nordeste 36 Nordeste 0 -- -- 80
2020-03-03 05:00:00 17.2 15 Nordeste 32 Nordeste 0 -- -- 81
2020-03-03 04:00:00 17.5 18 Nordeste 39 Nordeste 0 -- -- 79
2020-03-03 03:00:00 17.5 19 Nordeste 40 Nordeste 0 -- -- 76
2020-03-03 02:00:00 17.7 22 Nordeste 47 Nordeste 0 -- -- 75
2020-03-03 01:00:00 18 18 Nordeste 49 Nordeste 0 -- -- 72
2020-03-03 00:00:00 18.3 30 Nordeste 52 Nordeste 0 -- -- 69